Time;durP1;ratioP1;P1;durP2;ratioP2;P2;SDS_P1;SDS_P2;PMS_P1;PMS_P2;Temp;Humidity;BMP_temperature;BMP_pressure;BME280_temperature;BME280_humidity;BME280_pressure;Samples;Min_cycle;Max_cycle;Signal;HPM_P1;HPM_P2
2023/09/06 00:00:14;;;;;;;34.05;31.48;;;17.90;99.90;;;;;;6214868;23;20012;-82
2023/09/06 00:02:40;;;;;;;23.83;21.52;;;17.90;99.90;;;;;;6240236;23;20012;-82
2023/09/06 00:05:06;;;;;;;29.55;27.08;;;17.80;99.90;;;;;;6214533;23;20387;-82
2023/09/06 00:07:32;;;;;;;30.92;28.65;;;17.80;99.90;;;;;;6214574;23;20212;-82
2023/09/06 00:09:58;;;;;;;36.47;33.92;;;17.80;99.90;;;;;;6239808;23;20013;-82
2023/09/06 00:12:24;;;;;;;32.50;30.13;;;17.70;99.90;;;;;;6214601;23;20112;-82
2023/09/06 00:14:49;;;;;;;26.77;24.55;;;17.70;99.90;;;;;;6214944;23;20020;-82
2023/09/06 00:17:15;;;;;;;32.17;29.58;;;17.70;99.90;;;;;;6214781;23;20023;-82
2023/09/06 00:19:42;;;;;;;33.80;31.02;;;17.60;99.90;;;;;;6240590;23;20336;-82
2023/09/06 00:22:08;;;;;;;35.47;32.58;;;17.60;99.90;;;;;;6215133;23;20008;-81
2023/09/06 00:24:34;;;;;;;34.22;31.45;;;17.50;99.90;;;;;;6214324;23;20066;-82
2023/09/06 00:27:03;;;;;;;32.28;29.50;;;17.60;99.90;;;;;;6242116;23;20012;-82
2023/09/06 00:29:32;;;;;;;36.50;33.47;;;17.60;99.90;;;;;;6215280;23;20008;-82
2023/09/06 00:31:58;;;;;;;40.00;36.75;;;17.60;99.90;;;;;;6214985;23;20008;-82
2023/09/06 00:34:24;;;;;;;42.20;38.60;;;17.60;99.90;;;;;;6214769;23;20367;-82
2023/09/06 00:36:49;;;;;;;31.65;28.83;;;17.60;99.90;;;;;;6215058;23;20008;-82
2023/09/06 00:39:15;;;;;;;34.88;31.75;;;17.60;99.90;;;;;;6241273;23;20093;-82
2023/09/06 00:41:41;;;;;;;33.17;30.33;;;17.60;99.90;;;;;;6216393;23;20074;-82
2023/09/06 00:44:10;;;;;;;31.73;28.98;;;17.60;99.90;;;;;;6215328;23;20012;-81
2023/09/06 00:46:37;;;;;;;38.30;34.80;;;17.60;99.90;;;;;;6241383;22;20455;-82
2023/09/06 00:49:03;;;;;;;32.25;29.55;;;17.60;99.90;;;;;;6241863;22;20016;-81
2023/09/06 00:51:32;;;;;;;42.35;38.85;;;17.60;99.90;;;;;;6214748;23;20087;-82
2023/09/06 00:54:00;;;;;;;36.25;32.90;;;17.60;99.90;;;;;;6214245;23;20008;-81
2023/09/06 00:56:26;;;;;;;31.17;28.35;;;17.70;99.90;;;;;;6214547;23;20095;-82
2023/09/06 00:58:52;;;;;;;33.72;30.65;;;17.60;99.90;;;;;;6239768;23;20048;-82
2023/09/06 01:01:18;;;;;;;37.50;34.38;;;17.70;99.90;;;;;;6265238;22;20048;-82
2023/09/06 01:03:44;;;;;;;33.80;30.65;;;17.70;99.90;;;;;;6214016;23;20040;-82
2023/09/06 01:06:36;;;;;;;32.58;29.73;;;17.70;99.90;;;;;;6239379;23;20070;-82
2023/09/06 01:09:06;;;;;;;33.47;30.60;;;17.70;99.90;;;;;;6239114;23;20009;-82
2023/09/06 01:11:37;;;;;;;33.67;30.92;;;17.60;99.90;;;;;;6239740;23;20027;-81
2023/09/06 01:14:03;;;;;;;34.65;31.60;;;17.70;99.90;;;;;;6214174;23;20039;-81
2023/09/06 01:16:34;;;;;;;33.05;30.25;;;17.70;99.90;;;;;;6214102;23;20013;-82
2023/09/06 01:19:00;;;;;;;35.17;32.13;;;17.70;99.90;;;;;;6239297;23;20099;-82
2023/09/06 01:21:58;;;;;;;34.33;31.27;;;17.70;99.90;;;;;;6239873;23;20011;-82
2023/09/06 01:24:25;;;;;;;37.33;34.00;;;17.70;99.90;;;;;;6228525;23;20080;-82
2023/09/06 01:26:51;;;;;;;37.58;34.38;;;17.60;99.90;;;;;;6214619;23;20022;-82
2023/09/06 01:29:18;;;;;;;39.47;35.20;;;17.70;99.90;;;;;;6264776;22;20094;-82
2023/09/06 01:31:44;;;;;;;31.20;28.55;;;17.70;99.90;;;;;;6240777;22;20098;-82
2023/09/06 01:34:10;;;;;;;32.42;29.52;;;17.60;99.90;;;;;;6241246;23;20020;-81
2023/09/06 01:36:35;;;;;;;38.65;35.00;;;17.60;99.90;;;;;;6238816;23;20012;-82
2023/09/06 01:39:01;;;;;;;38.90;35.58;;;17.60;99.90;;;;;;6241149;23;20439;-82
2023/09/06 01:41:27;;;;;;;34.05;31.17;;;17.70;99.90;;;;;;6213928;23;20016;-82
2023/09/06 01:43:54;;;;;;;33.25;30.42;;;17.60;99.90;;;;;;6213864;23;20019;-82
2023/09/06 01:46:20;;;;;;;36.42;33.33;;;17.70;99.90;;;;;;6239389;23;20436;-82
2023/09/06 01:48:46;;;;;;;38.50;35.13;;;17.70;99.90;;;;;;6213814;23;20048;-82
2023/09/06 01:51:15;;;;;;;36.35;33.33;;;17.70;99.90;;;;;;6238420;23;20074;-82
2023/09/06 01:53:41;;;;;;;31.60;28.45;;;17.60;99.90;;;;;;6213832;23;20090;-82
2023/09/06 01:56:07;;;;;;;35.05;32.30;;;17.60;99.90;;;;;;6213776;23;20015;-82
2023/09/06 01:58:35;;;;;;;34.78;31.73;;;17.70;99.90;;;;;;6239348;23;20043;-81
2023/09/06 02:01:01;;;;;;;33.42;30.48;;;17.60;99.90;;;;;;6213683;23;20016;-82
2023/09/06 02:03:29;;;;;;;35.25;32.55;;;17.50;99.90;;;;;;6238988;23;20012;-82
2023/09/06 02:05:55;;;;;;;38.25;35.40;;;17.50;99.90;;;;;;6238788;23;20026;-82
2023/09/06 02:08:21;;;;;;;35.20;32.28;;;17.40;99.90;;;;;;6239468;23;20351;-82
2023/09/06 02:10:47;;;;;;;36.70;33.72;;;17.40;99.90;;;;;;6239425;23;20008;-81
2023/09/06 02:13:13;;;;;;;36.65;33.55;;;17.30;99.90;;;;;;6213912;23;20638;-82
2023/09/06 02:15:39;;;;;;;34.83;32.13;;;17.30;99.90;;;;;;6239177;23;20016;-82
2023/09/06 02:18:05;;;;;;;33.88;31.15;;;17.30;99.90;;;;;;6213822;23;20351;-82
2023/09/06 02:20:30;;;;;;;31.08;28.27;;;17.20;99.90;;;;;;6240043;23;20338;-82
2023/09/06 02:22:56;;;;;;;36.42;33.58;;;17.20;99.90;;;;;;6239347;23;20008;-82
2023/09/06 02:25:30;;;;;;;29.10;26.58;;;17.10;99.90;;;;;;6213508;23;20062;-82
2023/09/06 02:28:04;;;;;;;37.42;34.55;;;17.10;99.90;;;;;;6239030;23;20043;-82
2023/09/06 02:30:30;;;;;;;38.00;35.10;;;17.10;99.90;;;;;;6240314;23;20091;-82
2023/09/06 02:32:56;;;;;;;32.08;29.58;;;17.00;99.90;;;;;;6240869;23;20008;-82
2023/09/06 02:35:22;;;;;;;33.22;30.70;;;17.00;99.90;;;;;;6240730;23;20141;-82
2023/09/06 02:37:48;;;;;;;32.78;30.08;;;16.90;99.90;;;;;;6242941;22;20427;-82
2023/09/06 02:40:17;;;;;;;33.22;30.38;;;16.90;99.90;;;;;;6215597;23;20008;-82
2023/09/06 02:42:44;;;;;;;30.13;27.85;;;16.90;99.90;;;;;;6243032;22;20087;-82
2023/09/06 02:45:11;;;;;;;29.95;27.35;;;16.80;99.90;;;;;;6215427;23;20070;-82
2023/09/06 02:47:50;;;;;;;35.55;32.95;;;16.70;99.90;;;;;;6266667;22;20012;-82
2023/09/06 02:50:18;;;;;;;28.08;25.58;;;16.70;99.90;;;;;;6215083;23;20036;-82
2023/09/06 02:52:45;;;;;;;33.53;30.92;;;16.70;99.90;;;;;;6215534;23;20062;-82
2023/09/06 02:55:13;;;;;;;30.08;27.77;;;16.70;99.90;;;;;;6215640;23;20016;-82
2023/09/06 02:57:40;;;;;;;31.75;29.25;;;16.60;99.90;;;;;;6215752;23;20113;-82
2023/09/06 03:02:46;;;;;;;27.30;25.20;;;16.70;99.90;;;;;;6243090;22;20095;-81
2023/09/06 03:05:17;;;;;;;32.95;30.25;;;16.70;99.90;;;;;;6214567;23;20115;-82
2023/09/06 03:07:44;;;;;;;31.15;28.50;;;16.60;99.90;;;;;;6240930;23;20087;-82
2023/09/06 03:10:10;;;;;;;35.53;32.70;;;16.60;99.90;;;;;;6266339;22;20028;-82
2023/09/06 03:12:36;;;;;;;35.42;32.40;;;16.50;99.90;;;;;;6242907;23;20019;-82
2023/09/06 03:15:08;;;;;;;38.00;34.97;;;16.50;99.90;;;;;;6240984;23;20019;-82
2023/09/06 03:17:36;;;;;;;38.13;35.28;;;16.50;99.90;;;;;;6240835;23;20331;-82
2023/09/06 03:20:18;;;;;;;35.47;32.63;;;16.50;99.90;;;;;;6215097;23;20008;-82
2023/09/06 03:22:46;;;;;;;34.17;31.67;;;16.40;99.90;;;;;;6242613;22;20008;-81
2023/09/06 03:25:14;;;;;;;26.83;24.75;;;16.40;99.90;;;;;;6240534;23;20087;-82
2023/09/06 03:27:42;;;;;;;39.70;36.67;;;16.40;99.90;;;;;;6240725;23;20012;-82
2023/09/06 03:30:08;;;;;;;37.72;35.05;;;16.40;99.90;;;;;;6240650;23;20016;-81
2023/09/06 03:32:38;;;;;;;35.67;33.03;;;16.30;99.90;;;;;;6239972;23;20043;-81
2023/09/06 03:35:04;;;;;;;34.53;31.73;;;16.30;99.90;;;;;;6265993;22;20009;-82
2023/09/06 03:37:30;;;;;;;37.13;34.22;;;16.30;99.90;;;;;;6215019;23;20012;-81
2023/09/06 03:39:56;;;;;;;29.67;27.00;;;16.20;99.90;;;;;;6240513;23;20105;-81
2023/09/06 03:42:23;;;;;;;33.10;30.40;;;16.20;99.90;;;;;;6214278;23;20008;-84
2023/09/06 03:44:49;;;;;;;32.03;29.48;;;16.20;99.90;;;;;;6215070;23;20027;-82
2023/09/06 03:47:16;;;;;;;31.58;28.77;;;16.10;99.90;;;;;;6214368;23;20012;-82
2023/09/06 03:49:43;;;;;;;35.10;32.63;;;16.10;99.90;;;;;;6240337;23;20463;-82
2023/09/06 03:52:16;;;;;;;36.28;32.90;;;16.10;99.90;;;;;;6215154;23;20020;-82
2023/09/06 03:54:42;;;;;;;33.92;31.30;;;16.00;99.90;;;;;;6240366;23;20023;-82
2023/09/06 03:57:07;;;;;;;30.67;28.20;;;16.00;99.90;;;;;;6243297;23;20004;-83
2023/09/06 03:59:37;;;;;;;35.67;33.20;;;16.00;99.90;;;;;;6245152;23;20066;-82
2023/09/06 04:02:07;;;;;;;33.33;30.85;;;16.00;99.90;;;;;;6214281;23;20016;-82
2023/09/06 04:04:34;;;;;;;40.17;37.28;;;15.90;99.90;;;;;;6240928;23;20083;-82
2023/09/06 04:07:00;;;;;;;37.70;34.90;;;15.90;99.90;;;;;;6241367;23;20012;-82
2023/09/06 04:09:30;;;;;;;32.10;29.60;;;15.90;99.90;;;;;;6240437;23;20016;-83
2023/09/06 04:11:59;;;;;;;36.05;33.25;;;15.90;99.90;;;;;;6215008;23;20092;-82
2023/09/06 04:14:25;;;;;;;32.63;30.25;;;15.30;99.90;;;;;;6240409;23;20043;-82
2023/09/06 04:16:51;;;;;;;35.22;32.50;;;15.80;99.90;;;;;;6239415;23;20016;-82
2023/09/06 04:19:17;;;;;;;30.55;28.15;;;15.80;99.90;;;;;;6214360;23;20016;-83
2023/09/06 04:21:47;;;;;;;29.20;26.92;;;15.80;99.90;;;;;;6239714;23;20008;-83
2023/09/06 04:24:12;;;;;;;46.15;42.72;;;15.80;99.90;;;;;;6214490;23;20091;-82
2023/09/06 04:26:38;;;;;;;36.15;33.28;;;15.50;99.90;;;;;;6214529;23;20093;-83
2023/09/06 04:29:07;;;;;;;41.33;38.22;;;15.80;99.90;;;;;;6214660;23;20013;-82
2023/09/06 04:31:33;;;;;;;44.42;41.30;;;15.70;99.90;;;;;;6239081;23;20008;-82
2023/09/06 04:34:01;;;;;;;51.95;48.00;;;15.90;99.90;;;;;;6214424;23;20074;-82
2023/09/06 04:36:27;;;;;;;40.08;36.97;;;15.70;99.90;;;;;;6214520;23;20104;-82
2023/09/06 04:38:53;;;;;;;45.28;42.08;;;15.70;99.90;;;;;;6214212;23;20047;-82
2023/09/06 04:41:19;;;;;;;40.72;37.45;;;15.80;99.90;;;;;;6239833;22;20051;-82
2023/09/06 04:43:47;;;;;;;41.63;38.55;;;15.70;99.90;;;;;;6214779;23;20457;-82
2023/09/06 04:46:13;;;;;;;36.70;34.05;;;15.70;99.90;;;;;;6239201;23;20461;-82
2023/09/06 04:48:39;;;;;;;41.00;37.90;;;15.70;99.90;;;;;;6214560;23;20066;-82
2023/09/06 04:51:05;;;;;;;45.35;42.28;;;15.70;99.90;;;;;;6239627;23;20019;-82
2023/09/06 04:53:31;;;;;;;38.50;35.75;;;15.70;99.90;;;;;;6239508;23;20012;-82
2023/09/06 04:55:57;;;;;;;44.13;41.05;;;15.70;99.90;;;;;;6240052;23;20087;-83
2023/09/06 04:58:23;;;;;;;40.70;37.70;;;15.70;99.90;;;;;;6239732;23;20020;-83
2023/09/06 05:00:51;;;;;;;43.13;39.92;;;15.70;99.90;;;;;;6213456;23;20351;-81
2023/09/06 05:03:17;;;;;;;33.30;30.77;;;15.70;99.90;;;;;;6214245;23;20050;-82
2023/09/06 05:05:47;;;;;;;36.15;33.28;;;15.80;99.90;;;;;;6213745;23;20015;-82
2023/09/06 05:08:14;;;;;;;33.95;31.48;;;15.70;99.90;;;;;;6239804;23;20016;-82
2023/09/06 05:10:39;;;;;;;31.73;29.17;;;15.80;99.90;;;;;;6213872;23;20012;-82
2023/09/06 05:13:11;;;;;;;31.38;28.88;;;15.80;99.90;;;;;;6241556;23;20047;-83
2023/09/06 05:15:37;;;;;;;32.95;30.30;;;15.80;99.90;;;;;;6238157;23;20012;-82
2023/09/06 05:18:10;;;;;;;34.60;31.60;;;15.90;99.90;;;;;;6240921;22;20471;-82
2023/09/06 05:20:38;;;;;;;38.83;35.67;;;15.90;99.90;;;;;;6214026;23;20016;-82
2023/09/06 05:23:04;;;;;;;33.70;31.20;;;15.90;99.90;;;;;;6214167;23;20239;-82
2023/09/06 05:25:31;;;;;;;35.08;32.40;;;15.90;99.90;;;;;;6239093;23;20016;-82
2023/09/06 05:28:02;;;;;;;31.30;28.92;;;15.90;99.90;;;;;;6214163;23;20339;-82
2023/09/06 05:30:28;;;;;;;32.42;29.88;;;15.90;99.90;;;;;;6238715;23;20083;-82
2023/09/06 05:32:55;;;;;;;36.58;33.88;;;15.90;99.90;;;;;;6239557;23;20039;-82
2023/09/06 05:35:21;;;;;;;35.85;33.25;;;15.90;99.90;;;;;;6239410;23;20070;-82
2023/09/06 05:37:47;;;;;;;30.52;27.98;;;15.90;99.90;;;;;;6213972;23;20350;-82
2023/09/06 05:40:13;;;;;;;29.48;27.23;;;15.90;99.90;;;;;;6239143;23;20016;-82
2023/09/06 05:42:41;;;;;;;30.17;28.05;;;15.90;99.90;;;;;;6239507;23;20020;-82
2023/09/06 05:45:11;;;;;;;32.97;30.17;;;15.90;99.90;;;;;;6238801;23;20019;-82
2023/09/06 05:47:38;;;;;;;29.70;27.63;;;15.90;99.90;;;;;;6239076;23;20326;-82
2023/09/06 05:50:05;;;;;;;29.27;27.05;;;16.00;99.90;;;;;;6239004;23;20410;-82
2023/09/06 05:52:31;;;;;;;30.10;27.83;;;16.00;99.90;;;;;;6239085;23;20008;-82
2023/09/06 05:54:57;;;;;;;35.67;33.08;;;16.00;99.90;;;;;;6213644;23;20338;-82
2023/09/06 05:57:22;;;;;;;25.40;23.50;;;16.00;99.90;;;;;;6213087;23;20012;-82
2023/09/06 05:59:48;;;;;;;30.92;28.83;;;16.00;99.90;;;;;;6264777;22;20012;-82
2023/09/06 06:02:17;;;;;;;27.88;25.88;;;16.00;99.90;;;;;;6238999;23;20047;-82
2023/09/06 06:04:46;;;;;;;33.35;30.95;;;15.90;99.90;;;;;;6213140;23;20374;-82
2023/09/06 06:07:13;;;;;;;27.45;25.15;;;16.00;99.90;;;;;;6240784;22;20387;-82
2023/09/06 06:09:40;;;;;;;29.63;27.23;;;16.00;99.90;;;;;;6214062;23;20023;-83
2023/09/06 06:12:06;;;;;;;26.30;24.38;;;16.00;99.90;;;;;;6213008;23;20017;-82
2023/09/06 06:14:36;;;;;;;25.00;22.88;;;16.10;99.90;;;;;;6264456;22;20016;-83
2023/09/06 06:17:04;;;;;;;24.20;22.27;;;16.30;99.90;;;;;;6239666;23;20009;-82
2023/09/06 06:19:30;;;;;;;24.38;22.55;;;17.00;99.90;;;;;;6213486;23;20101;-83
2023/09/06 06:21:55;;;;;;;20.65;18.63;;;18.50;99.90;;;;;;6213534;23;20443;-83
2023/09/06 06:24:21;;;;;;;13.02;11.82;;;20.10;99.90;;;;;;6213651;23;20008;-82
2023/09/06 06:26:49;;;;;;;19.58;17.92;;;21.50;99.90;;;;;;6239929;23;20098;-82
2023/09/06 06:29:14;;;;;;;13.23;11.90;;;22.70;99.90;;;;;;6213667;23;20114;-83
2023/09/06 06:31:40;;;;;;;23.58;21.80;;;23.80;99.90;;;;;;6213899;23;20012;-83
2023/09/06 06:34:06;;;;;;;19.05;17.58;;;24.70;99.90;;;;;;6213500;23;20321;-83
2023/09/06 06:36:32;;;;;;;24.85;22.65;;;25.10;99.90;;;;;;6213639;23;20020;-83
2023/09/06 06:38:57;;;;;;;19.05;17.15;;;24.80;99.90;;;;;;6238999;23;20016;-83
2023/09/06 06:41:24;;;;;;;23.50;21.80;;;24.00;99.90;;;;;;6212874;23;20012;-83
2023/09/06 06:43:50;;;;;;;18.58;17.17;;;23.30;99.90;;;;;;6240167;22;20034;-83
2023/09/06 06:46:30;;;;;;;19.25;17.52;;;22.60;99.90;;;;;;6240793;23;20092;-82
2023/09/06 06:48:57;;;;;;;34.15;31.95;;;22.20;99.90;;;;;;6239313;23;20012;-82
2023/09/06 06:51:25;;;;;;;33.30;31.00;;;21.70;99.90;;;;;;6213354;23;20023;-82
2023/09/06 06:53:51;;;;;;;35.92;33.72;;;21.40;99.90;;;;;;6213678;23;20008;-83
2023/09/06 06:56:21;;;;;;;28.50;26.38;;;21.10;99.90;;;;;;6212977;23;20343;-83
2023/09/06 06:58:51;;;;;;;41.88;39.22;;;20.90;99.90;;;;;;6213523;23;20016;-82
2023/09/06 07:01:16;;;;;;;37.38;34.58;;;20.80;99.90;;;;;;6213450;23;20023;-82
2023/09/06 07:03:42;;;;;;;33.00;30.70;;;20.70;99.90;;;;;;6238371;23;20016;-82
2023/09/06 07:06:08;;;;;;;33.58;31.25;;;20.70;99.90;;;;;;6213405;23;20297;-83
2023/09/06 07:08:37;;;;;;;30.98;28.98;;;20.60;99.90;;;;;;6238648;23;20062;-82
2023/09/06 07:11:04;;;;;;;25.77;23.98;;;20.60;99.90;;;;;;6239710;23;20013;-82
2023/09/06 07:13:31;;;;;;;27.40;25.42;;;20.60;99.90;;;;;;6238662;23;20012;-83
2023/09/06 07:15:56;;;;;;;23.90;22.40;;;20.70;99.90;;;;;;6214343;23;20012;-82
2023/09/06 07:18:22;;;;;;;29.13;26.88;;;20.70;99.90;;;;;;6240359;23;20027;-82
2023/09/06 07:20:48;;;;;;;26.45;24.60;;;20.70;99.90;;;;;;6215407;23;20016;-82
2023/09/06 07:23:14;;;;;;;25.80;23.90;;;20.80;99.90;;;;;;6240713;23;20015;-82
2023/09/06 07:25:44;;;;;;;35.30;33.17;;;20.80;99.90;;;;;;6214428;23;20340;-82
2023/09/06 07:28:10;;;;;;;33.22;31.02;;;20.90;99.90;;;;;;6240409;23;20020;-82
2023/09/06 07:30:36;;;;;;;28.63;26.58;;;20.90;99.90;;;;;;6215150;23;20008;-83
2023/09/06 07:33:05;;;;;;;31.05;29.15;;;21.00;99.90;;;;;;6215267;23;20478;-82
2023/09/06 07:35:31;;;;;;;38.55;36.20;;;21.00;99.90;;;;;;6215266;23;20058;-82
2023/09/06 07:37:56;;;;;;;37.13;34.97;;;21.10;99.90;;;;;;6240667;23;20043;-83
2023/09/06 07:40:22;;;;;;;23.50;21.92;;;21.10;99.90;;;;;;6240262;23;20020;-82
2023/09/06 07:42:49;;;;;;;21.02;19.67;;;21.20;99.90;;;;;;6215202;23;20024;-82
2023/09/06 07:45:15;;;;;;;37.60;35.42;;;21.20;99.90;;;;;;6215262;23;20024;-82
2023/09/06 07:47:41;;;;;;;22.10;20.65;;;21.30;99.90;;;;;;6215338;23;20019;-83
2023/09/06 07:50:09;;;;;;;20.38;19.05;;;21.40;99.90;;;;;;6240621;23;20012;-82
2023/09/06 07:52:38;;;;;;;40.20;37.78;;;21.40;99.90;;;;;;6216067;23;20014;-82
2023/09/06 07:55:07;;;;;;;27.08;25.40;;;21.40;99.90;;;;;;6214845;23;20434;-82
2023/09/06 07:57:36;;;;;;;25.13;23.52;;;21.30;99.90;;;;;;6241187;23;20063;-82
2023/09/06 08:00:12;;;;;;;21.77;20.38;;;21.60;99.90;;;;;;6214527;23;20150;-82
2023/09/06 08:02:37;;;;;;;21.48;20.13;;;21.60;99.90;;;;;;6215367;23;20016;-82
2023/09/06 08:05:04;;;;;;;22.70;21.27;;;21.60;99.90;;;;;;6214927;23;20023;-82
2023/09/06 08:07:32;;;;;;;36.47;34.28;;;21.80;99.90;;;;;;6240222;23;20087;-83
2023/09/06 08:10:00;;;;;;;28.85;27.05;;;21.70;99.90;;;;;;6239710;23;20044;-82
2023/09/06 08:12:26;;;;;;;23.45;22.02;;;21.80;99.90;;;;;;6215026;23;20550;-82
2023/09/06 08:14:51;;;;;;;29.95;27.75;;;21.60;99.90;;;;;;6240730;23;20035;-83
2023/09/06 08:17:17;;;;;;;30.13;28.10;;;22.00;99.90;;;;;;6215085;23;20039;-83
2023/09/06 08:19:43;;;;;;;39.55;36.75;;;22.10;99.90;;;;;;6239883;23;20016;-83
2023/09/06 08:22:08;;;;;;;38.88;36.38;;;22.10;99.90;;;;;;6240705;23;20301;-83
2023/09/06 08:24:34;;;;;;;21.80;20.17;;;22.20;99.90;;;;;;6239898;23;20007;-83
2023/09/06 08:27:00;;;;;;;20.52;19.13;;;22.50;99.90;;;;;;6214637;23;20067;-83
2023/09/06 08:29:25;;;;;;;25.25;23.55;;;22.30;99.90;;;;;;6240116;23;20444;-83
2023/09/06 08:31:51;;;;;;;24.40;22.80;;;22.20;99.90;;;;;;6240561;23;20427;-83
2023/09/06 08:34:17;;;;;;;27.70;25.85;;;22.40;99.90;;;;;;6240112;23;20012;-82
2023/09/06 08:36:43;;;;;;;36.08;33.72;;;22.50;99.90;;;;;;6240665;23;20016;-82
2023/09/06 08:39:08;;;;;;;22.85;21.40;;;22.60;99.90;;;;;;6214749;23;20093;-83
2023/09/06 08:41:34;;;;;;;29.27;27.48;;;22.70;99.90;;;;;;6215289;23;20463;-83
2023/09/06 08:44:09;;;;;;;30.30;28.45;;;22.80;99.90;;;;;;6240305;23;20043;-83
2023/09/06 08:46:43;;;;;;;23.77;22.17;;;23.00;99.90;;;;;;6214894;23;20043;-83
2023/09/06 08:49:09;;;;;;;33.58;31.50;;;23.10;99.90;;;;;;6215357;23;20016;-83
2023/09/06 08:51:36;;;;;;;35.17;33.13;;;23.10;99.90;;;;;;6214597;23;20028;-83
2023/09/06 08:54:07;;;;;;;26.17;24.48;;;23.50;99.90;;;;;;6215020;23;20462;-83
2023/09/06 08:56:33;;;;;;;29.98;28.15;;;24.20;99.90;;;;;;6215160;23;20012;-83
2023/09/06 08:59:06;;;;;;;28.15;26.48;;;25.30;99.90;;;;;;6214679;23;20012;-83
2023/09/06 09:01:34;;;;;;;34.90;32.67;;;26.50;99.90;;;;;;6215028;23;20347;-83
2023/09/06 09:04:00;;;;;;;45.38;42.53;;;27.30;99.90;;;;;;6239867;23;20091;-83
2023/09/06 09:06:26;;;;;;;30.05;28.25;;;27.90;99.90;;;;;;6214089;23;20070;-83
2023/09/06 09:08:52;;;;;;;83.80;79.07;;;28.60;99.90;;;;;;6215004;23;20212;-83
2023/09/06 09:11:19;;;;;;;124.88;117.68;;;29.10;99.90;;;;;;6240876;23;20386;-83
2023/09/06 09:13:47;;;;;;;347.58;325.77;;;29.60;99.90;;;;;;6215351;23;20169;-83
2023/09/06 09:16:17;;;;;;;115.72;109.47;;;29.80;99.90;;;;;;6215730;23;20011;-84
2023/09/06 09:18:44;;;;;;;974.60;893.58;;;29.90;99.90;;;;;;6241277;23;20016;-83
2023/09/06 09:21:13;;;;;;;1429.45;999.90;;;30.20;99.90;;;;;;6215797;23;20038;-83
2023/09/06 09:23:54;;;;;;;1177.05;999.90;;;30.50;99.90;;;;;;6240864;23;20331;-83
2023/09/06 09:26:21;;;;;;;1397.13;999.90;;;30.40;99.90;;;;;;6240640;23;20382;-84
2023/09/06 09:28:50;;;;;;;1999.90;999.90;;;30.30;99.90;;;;;;6266010;22;20378;-83
2023/09/06 09:31:16;;;;;;;1999.90;999.90;;;29.70;99.90;;;;;;6240632;23;20078;-83
2023/09/06 09:33:44;;;;;;;1999.90;999.90;;;29.00;99.90;;;;;;6240498;23;20012;-83
2023/09/06 09:36:13;;;;;;;1999.90;999.90;;;28.40;99.90;;;;;;6214432;23;20109;-83
2023/09/06 09:38:52;;;;;;;1999.90;999.90;;;27.80;99.90;;;;;;6214648;23;20284;-83
2023/09/06 09:41:19;;;;;;;1999.90;999.90;;;27.50;99.90;;;;;;6214097;23;20008;-83
2023/09/06 09:43:48;;;;;;;1999.90;999.90;;;27.20;99.90;;;;;;6214080;23;20077;-83
2023/09/06 09:46:28;;;;;;;1999.90;999.90;;;26.90;99.90;;;;;;6213694;23;20012;-83
2023/09/06 09:48:58;;;;;;;1999.90;999.90;;;26.70;99.90;;;;;;6214034;23;20058;-84
2023/09/06 09:51:24;;;;;;;1999.90;999.90;;;26.60;99.90;;;;;;6213473;23;20431;-83
2023/09/06 09:53:50;;;;;;;1999.90;999.90;;;26.50;99.90;;;;;;6239763;23;20023;-83
2023/09/06 09:56:15;;;;;;;1999.90;999.90;;;26.50;99.90;;;;;;6213876;23;20155;-83
2023/09/06 09:58:41;;;;;;;1999.90;999.90;;;26.60;99.90;;;;;;6239693;23;20023;-83
2023/09/06 10:01:08;;;;;;;1999.90;999.90;;;26.60;99.90;;;;;;6213928;23;20019;-83
2023/09/06 10:03:39;;;;;;;1999.90;999.90;;;26.50;99.90;;;;;;6213339;23;20019;-83
2023/09/06 10:06:06;;;;;;;1999.90;999.90;;;26.60;99.90;;;;;;6213278;23;20052;-83
2023/09/06 10:08:37;;;;;;;1999.90;999.90;;;26.60;99.90;;;;;;6239047;23;20523;-84
2023/09/06 10:11:06;;;;;;;1999.90;999.90;;;26.80;99.90;;;;;;6239681;23;20457;-84
2023/09/06 10:13:37;;;;;;;1999.90;999.90;;;26.80;99.90;;;;;;6213329;23;20058;-83
2023/09/06 10:16:05;;;;;;;1999.90;999.90;;;26.90;99.90;;;;;;6239209;23;20012;-83
2023/09/06 10:18:30;;;;;;;1999.90;999.90;;;26.90;99.90;;;;;;6213727;23;20027;-84
2023/09/06 10:21:05;;;;;;;1999.90;999.90;;;27.00;99.90;;;;;;6213721;23;20005;-84
2023/09/06 10:23:31;;;;;;;1999.90;999.90;;;27.00;99.90;;;;;;6239739;23;20394;-83
2023/09/06 10:26:06;;;;;;;1999.90;999.90;;;27.00;99.90;;;;;;6239050;23;20016;-83
2023/09/06 10:28:34;;;;;;;1999.90;999.90;;;27.00;99.90;;;;;;6213961;23;20004;-84
2023/09/06 10:31:07;;;;;;;1999.90;999.90;;;27.10;99.90;;;;;;6240843;22;20091;-83
2023/09/06 10:33:36;;;;;;;1999.90;999.90;;;27.10;99.90;;;;;;6238518;23;20035;-84
2023/09/06 10:36:19;;;;;;;1999.90;999.90;;;27.10;99.90;;;;;;6239281;23;20016;-83
2023/09/06 10:38:51;;;;;;;1999.90;999.90;;;27.30;99.90;;;;;;6213792;23;20062;-84
2023/09/06 10:41:18;;;;;;;1999.90;999.90;;;27.40;99.90;;;;;;6213660;23;20016;-84
2023/09/06 10:44:07;;;;;;;1999.90;999.90;;;27.50;99.90;;;;;;6239410;23;20012;-84
2023/09/06 10:46:39;;;;;;;1999.90;999.90;;;27.50;99.90;;;;;;6239522;23;20027;-84
2023/09/06 10:49:19;;;;;;;1999.90;999.90;;;27.70;99.90;;;;;;6238598;23;20023;-84
2023/09/06 10:52:06;;;;;;;1999.90;999.90;;;27.80;99.90;;;;;;6215550;23;20043;-84
2023/09/06 10:54:43;;;;;;;1999.90;999.90;;;27.90;99.90;;;;;;6241326;23;20043;-84
2023/09/06 10:57:15;;;;;;;1999.90;999.90;;;27.90;99.90;;;;;;6241979;23;20313;-83
2023/09/06 10:59:58;;;;;;;1999.90;999.90;;;27.90;99.90;;;;;;6241553;23;20012;-84
2023/09/06 11:02:27;;;;;;;1999.90;999.90;;;28.00;99.90;;;;;;6215631;23;20239;-84
2023/09/06 11:05:11;;;;;;;1999.90;999.90;;;28.00;99.90;;;;;;6241267;23;20020;-83
2023/09/06 11:07:44;;;;;;;1999.90;999.90;;;28.10;99.90;;;;;;6241338;23;20099;-84
2023/09/06 11:10:13;;;;;;;1999.90;999.90;;;28.10;99.90;;;;;;6216111;23;20070;-84
2023/09/06 11:12:39;;;;;;;1999.90;999.90;;;28.20;99.90;;;;;;6241654;23;20087;-84
2023/09/06 11:15:12;;;;;;;1999.90;999.90;;;28.30;99.90;;;;;;6216196;23;20043;-85
2023/09/06 11:17:40;;;;;;;1999.90;999.90;;;28.40;99.90;;;;;;6215366;23;20005;-84
2023/09/06 11:20:17;;;;;;;1999.90;999.90;;;28.40;99.90;;;;;;6215711;23;20009;-84
2023/09/06 11:22:50;;;;;;;1999.90;999.90;;;28.40;99.90;;;;;;6242758;22;20087;-84
2023/09/06 11:25:24;;;;;;;1999.90;999.90;;;28.50;99.40;;;;;;6266823;22;20004;-83
2023/09/06 11:27:50;;;;;;;1999.90;999.90;;;28.40;99.90;;;;;;6241762;23;20313;-84
2023/09/06 11:30:21;;;;;;;1999.90;999.90;;;28.50;99.90;;;;;;6215932;23;20012;-84
2023/09/06 11:32:48;;;;;;;1999.90;999.90;;;28.50;99.90;;;;;;6214817;23;20046;-84
2023/09/06 11:35:15;;;;;;;1999.90;999.90;;;28.50;99.90;;;;;;6242849;22;20020;-84
2023/09/06 11:37:49;;;;;;;1999.90;999.90;;;28.60;99.90;;;;;;6215583;23;20014;-84
2023/09/06 11:40:16;;;;;;;1999.90;999.90;;;28.70;99.90;;;;;;6241459;23;20397;-84
2023/09/06 11:42:43;;;;;;;1999.90;999.90;;;28.70;99.90;;;;;;6266532;22;20343;-84
2023/09/06 11:45:14;;;;;;;1999.90;999.90;;;28.80;99.80;;;;;;6215241;23;20071;-85
2023/09/06 11:47:42;;;;;;;1999.90;999.90;;;28.80;99.80;;;;;;6240260;23;20020;-84
2023/09/06 11:50:11;;;;;;;1999.90;999.90;;;28.80;99.90;;;;;;6241154;23;20004;-84
2023/09/06 11:52:39;;;;;;;1999.90;999.90;;;28.90;99.90;;;;;;6215627;23;20016;-84
2023/09/06 11:55:09;;;;;;;1999.90;999.90;;;28.90;99.90;;;;;;6241620;23;20011;-84
2023/09/06 11:57:38;;;;;;;1999.90;999.90;;;29.00;99.90;;;;;;6240886;23;20078;-84
2023/09/06 12:00:25;;;;;;;1999.90;999.90;;;29.00;99.90;;;;;;6215475;23;20191;-84
2023/09/06 12:02:51;;;;;;;1999.90;999.90;;;29.00;99.90;;;;;;6242813;23;20035;-85
2023/09/06 12:05:23;;;;;;;1999.90;999.90;;;29.10;99.90;;;;;;6217929;23;20012;-84
2023/09/06 12:07:49;;;;;;;1999.90;999.90;;;29.10;99.70;;;;;;6244781;23;20082;-85
2023/09/06 12:10:21;;;;;;;1999.90;999.90;;;29.20;99.90;;;;;;6243512;23;20070;-84
2023/09/06 12:12:49;;;;;;;1999.90;999.90;;;29.20;99.90;;;;;;6218435;23;20400;-84
2023/09/06 12:15:20;;;;;;;1999.90;999.90;;;29.30;99.90;;;;;;6243376;23;20016;-84
2023/09/06 12:17:50;;;;;;;1999.90;999.90;;;29.40;99.90;;;;;;6217301;23;20012;-85
2023/09/06 12:20:27;;;;;;;1999.90;999.90;;;29.50;99.90;;;;;;6218074;23;20147;-84
2023/09/06 12:22:53;;;;;;;1999.90;999.90;;;29.60;99.90;;;;;;6243870;23;20020;-84
2023/09/06 12:25:20;;;;;;;1999.90;999.90;;;29.60;99.90;;;;;;6216937;23;20359;-84
2023/09/06 12:27:47;;;;;;;1999.90;999.90;;;29.70;99.30;;;;;;6241113;23;20435;-84